NCAR-RAP Real-Time Weather Data

Output produced by METARs form (23 June 2018  19:26 UTC)
found at http://weather.rap.ucar.edu/surface/
 
RJOO 231100Z 11004KT 080V140 9999 FEW015 SCT040 BKN080 21/16 Q1005 RMK 1CU015 3CU040 5AC080 A2968
RJOO 231000Z 07003KT 9999 FEW015 SCT035 BKN045 21/16 Q1005 RMK 1CU015 3CU035 5SC045 A2969
RJOO 230900Z 07003KT 040V100 9999 FEW015 SCT030 BKN040 22/16 Q1005 RMK 1CU015 3CU030 5SC040 A2969
RJOO 230800Z 06006KT 9999 FEW010 SCT030 BKN040 21/17 Q1004 RMK 1ST010 3CU030 5SC040 A2967
RJOO 230700Z 04005KT 010V080 9999 -SHRA FEW006 SCT015 BKN050 21/18 Q1004 RMK 1ST006 3CU015 5SC050 A2966
RJOO 230600Z 07005KT 040V100 7000 -SHRA FEW004 SCT009 BKN015 20/18 Q1004 RMK 1ST004 3ST009 5CU015 A2966
RJOO 230542Z 07007KT 030V100 5000 -SHRA BR FEW004 SCT007 BKN035 20/18 Q1003 RMK 1ST004 3ST007 5CU035 A2962
RJOO 230525Z 07007KT 020V100 3000 -SHRA BR FEW004 SCT007 BKN035 20/18 Q1003 RMK 1ST004 3ST007 5CU035 A2963 P/FR
RJOO 230515Z 07006KT 2000 R32R/2000N R32L/P2000N SHRA BR FEW004 SCT007 BKN035 20/18 Q1004 RMK 1ST004 3ST007 5CU035 A2965 P/FR
RJOO 230511Z 07007KT 2000 R32R/1900U R32L/P2000N SHRA BR FEW004 SCT007 BKN035 20/18 Q1004 RMK 1ST004 3ST007 5CU035 A2965 P/FR
RJOO 230507Z 07007KT 2000 R32R/1700U R32L/1900U SHRA BR FEW004 SCT007 BKN035 20/18 Q1004 RMK 1ST004 3ST007 5CU035 A2966 P/FR
RJOO 230500Z 06006KT 2000 R32R/1500VP2000D R32L/1900D SHRA BR FEW004 SCT007 BKN035 20/18 Q1004 RMK 1ST004 3ST007 5CU035 A2966
RJOO 230443Z 04006KT 2000 R32R/1100VP2000D R32L/2000N SHRA BR FEW004 SCT007 BKN040 20/18 Q1005 RMK 1ST004 3ST007 5CU040 A2969
RJOO 230441Z 04005KT 2000 R32R/1100VP2000D R32L/P2000N SHRA BR FEW004 SCT020 BKN040 20/18 Q1005 RMK 1ST004 3CU020 5CU040 A2969
RJOO 230426Z 05008KT 3000 R32R/2000N R32L/2000N SHRA BR FEW004 SCT020 BKN040 20/18 Q1005 RMK 1ST004 3CU020 5CU040 A2968
RJOO 230415Z 03006KT 360V070 3000 R32R/1900U R32L/1900U SHRA BR FEW004 SCT015 BKN035 20/18 Q1005 RMK 1ST004 3CU015 5CU035 A2968
RJOO 230408Z 01006KT 2000 R32R/1600U R32L/1400VP2000N SHRA BR FEW004 SCT015 BKN035 20/18 Q1005 RMK 1ST004 3CU015 5CU035 A2968
RJOO 230400Z 03008KT 2000 R32R/1200V1700U R32L/1300VP2000D SHRA BR FEW006 SCT015 BKN035 20/18 Q1005 RMK 1ST006 3CU015 5CU035 A2968
RJOO 230340Z 02008KT 3000 R32R/1600VP2000N R32L/P2000N SHRA BR FEW008 SCT025 BKN045 20/17 Q1005 RMK 1ST008 3CU025 5CU045 A2968
RJOO 230329Z 03009KT 010V080 4000 R32R/1500VP2000D R32L/P2000N -SHRA BR FEW008 SCT025 BKN045 21/16 Q1005 RMK 1ST008 3CU025 5CU045 A2968
RJOO 230326Z 04008KT 010V080 4000 -SHRA BR FEW008 SCT025 BKN045 21/17 Q1005 RMK 1ST008 3CU025 5CU045 A2968
RJOO 230300Z 06009KT 7000 -SHRA BR FEW008 SCT030 BKN050 22/16 Q1004 RMK 1ST008 3CU030 5SC050 A2966
RJOO 230200Z 09012KT 9999 -SHRA FEW025 SCT050 BKN080 23/15 Q1004 RMK 1CU025 3SC050 6AC080 A2966
RJOO 230100Z 08010KT 050V120 9999 FEW025 BKN100 25/13 Q1003 RMK 1CU025 6AC100 A2964
RJOO 230000Z 05007KT 020V090 9999 FEW025 SCT080 BKN100 24/14 Q1004 RMK 1CU025 3AC080 5AS100 A2965
RJOO 222300Z 07006KT 040V110 9999 -RA FEW025 SCT080 OVC120 23/16 Q1005 RMK 1CU025 3AC080 8AS120 A2969
RJOO 222200Z 08005KT 9999 VCSH FEW010 SCT150 OVC180 22/16 Q1006 RMK 1ST010 4AC150 8AS180 A2973
RJOO 222100Z 02003KT 320V060 9999 VCSH FEW008 SCT150 OVC180 21/16 Q1007 RMK 1ST008 4AC150 8AS180 A2974
RJOO 222000Z VRB02KT CAVOK 21/16 Q1007 RMK A2975
RJOO 221100Z 23009KT CAVOK 24/16 Q1009 RMK A2980
RJOO 221000Z 25004KT 220V290 9999 FEW045 BKN/// 28/08 Q1008 RMK 1CU045 A2978
RJOO 220900Z 23006KT 170V250 9999 FEW030 BKN/// 29/08 Q1008 RMK 1CU030 A2977
RJOO 220800Z 21004KT 130V280 9999 FEW030 BKN/// 30/11 Q1007 RMK 1CU030 A2975
RJOO 220700Z VRB03KT 9999 FEW025 BKN/// 30/11 Q1007
RJOO 220600Z 22006KT 180V250 9999 FEW025 BKN/// 30/11 Q1007 RMK 1CU025 A2976
RJOO 220500Z VRB04KT 9999 FEW025 BKN/// 30/11 Q1008
RJOO 220400Z VRB02KT 9999 FEW025 BKN/// 28/13 Q1008 RMK 1CU025 A2979
RJOO 220300Z 23005KT 170V290 9999 FEW025 BKN/// 27/16 Q1009 RMK 1CU025 A2982
RJOO 220200Z VRB03KT 9999 FEW025 BKN/// 26/16 Q1010 RMK 1CU025 A2983
RJOO 220100Z VRB02KT 9999 FEW025 BKN/// 25/16 Q1010 RMK 1CU025 A2984
RJOO 220000Z VRB02KT 9999 FEW030 BKN/// 25/16 Q1010
RJOO 212300Z VRB01KT 9999 FEW015 BKN/// 22/15 Q1010
RJOO 212200Z 30003KT 9999 FEW015 BKN/// 21/15 Q1010 RMK 1CU015 A2983
RJOO 212100Z 31003KT 9999 FEW010 BKN/// 19/15 Q1010 RMK 1ST010 A2983
RJOO 212000Z VRB01KT 9999 FEW008 SCT012 BKN/// 19/15 Q1009 RMK 1ST008 3CU012 A2982
RJOO 211100Z 22005KT 9999 FEW025 SCT040 BKN/// 23/16 Q1007
RJOO 211000Z 24005KT 210V270 9999 FEW025 BKN/// 24/16 Q1006 RMK 1CU025 A2972
RJOO 210900Z 23006KT 160V250 9999 FEW025 BKN/// 25/14 Q1005 RMK 1CU025 A2970
RJOO 210800Z 22006KT 180V250 9999 FEW025 BKN/// 26/16 Q1004 RMK 1CU025 A2967